createdAt,value
2023-03-10T00:02:58.617Z,3.85
2023-03-10T00:06:02.946Z,3.82
2023-03-10T00:09:05.813Z,4.05
2023-03-10T00:12:08.881Z,3.89
2023-03-10T00:15:12.869Z,3.80
2023-03-10T00:18:15.559Z,3.93
2023-03-10T00:21:24.612Z,3.97
2023-03-10T00:24:27.238Z,4.12
2023-03-10T00:27:29.871Z,4.13
2023-03-10T00:30:35.353Z,4.11
2023-03-10T00:33:38.559Z,4.14
2023-03-10T00:36:41.470Z,3.91
2023-03-10T00:39:45.524Z,3.94
2023-03-10T00:42:48.518Z,3.76
2023-03-10T00:45:51.300Z,3.45
2023-03-10T00:48:54.356Z,3.31
2023-03-10T00:51:56.863Z,3.35
2023-03-10T00:54:59.473Z,3.16
2023-03-10T00:58:02.127Z,3.22
2023-03-10T01:01:11.451Z,3.41
2023-03-10T01:04:16.376Z,2.91
2023-03-10T01:07:19.144Z,3.00
2023-03-10T01:10:21.866Z,3.18
2023-03-10T01:13:24.542Z,3.42
2023-03-10T01:16:28.450Z,3.33
2023-03-10T01:19:31.603Z,3.50
2023-03-10T01:22:34.268Z,3.76
2023-03-10T01:25:36.917Z,3.78
2023-03-10T01:28:39.655Z,3.88
2023-03-10T01:31:42.353Z,3.80
2023-03-10T01:34:45.054Z,3.86
2023-03-10T01:37:47.590Z,3.92
2023-03-10T01:40:50.909Z,3.89
2023-03-10T01:43:55.624Z,3.74
2023-03-10T01:46:59.366Z,4.20
2023-03-10T01:50:08.796Z,3.81
2023-03-10T01:53:14.614Z,3.81
2023-03-10T01:56:17.642Z,3.68
2023-03-10T01:59:21.666Z,3.69
2023-03-10T02:02:25.396Z,3.85
2023-03-10T02:05:29.260Z,3.61
2023-03-10T02:08:38.809Z,4.01
2023-03-10T02:11:41.628Z,3.78
2023-03-10T02:14:46.881Z,3.75
2023-03-10T02:17:52.270Z,3.81
2023-03-10T02:21:21.505Z,3.80
2023-03-10T02:24:36.109Z,3.71
2023-03-10T02:27:40.185Z,3.60
2023-03-10T02:30:48.707Z,3.72
2023-03-10T02:33:52.302Z,3.31
2023-03-10T02:36:55.048Z,3.57
2023-03-10T02:40:00.166Z,3.42
2023-03-10T02:43:31.647Z,3.48
2023-03-10T02:46:50.755Z,3.40
2023-03-10T02:49:53.632Z,3.35
2023-03-10T02:53:08.289Z,3.47
2023-03-10T02:56:11.294Z,3.38
2023-03-10T02:59:16.445Z,3.10
2023-03-10T03:02:24.671Z,3.33
2023-03-10T03:05:27.377Z,3.03
2023-03-10T03:08:30.416Z,3.35
2023-03-10T03:11:33.118Z,3.28
2023-03-10T03:14:35.907Z,3.00
2023-03-10T03:17:41.189Z,2.93
2023-03-10T03:20:44.498Z,3.07
2023-03-10T03:23:48.770Z,3.01
2023-03-10T03:26:53.510Z,2.93
2023-03-10T03:30:00.760Z,2.85
2023-03-10T03:33:06.115Z,2.79
2023-03-10T03:36:08.982Z,2.77
2023-03-10T03:39:13.637Z,2.89
2023-03-10T03:42:16.676Z,3.03
2023-03-10T03:45:27.866Z,2.67
2023-03-10T03:48:34.833Z,2.99
2023-03-10T03:51:39.480Z,3.04
2023-03-10T03:54:42.250Z,2.99
2023-03-10T03:57:47.989Z,3.08
2023-03-10T04:00:51.954Z,3.05
2023-03-10T04:03:55.104Z,3.06
2023-03-10T04:07:00.112Z,2.81
2023-03-10T04:10:04.032Z,2.69
2023-03-10T04:13:07.406Z,2.67
2023-03-10T04:16:10.441Z,2.47
2023-03-10T04:19:15.502Z,2.31
2023-03-10T04:22:21.348Z,2.05
2023-03-10T04:25:25.004Z,2.36
2023-03-10T04:28:28.432Z,2.01
2023-03-10T04:31:31.502Z,1.94
2023-03-10T04:34:36.422Z,2.09
2023-03-10T04:37:40.697Z,2.40
2023-03-10T04:40:43.876Z,2.61
2023-03-10T04:43:48.011Z,2.53
2023-03-10T04:46:52.415Z,2.51
2023-03-10T04:49:56.058Z,2.44
2023-03-10T04:52:58.687Z,2.45
2023-03-10T04:56:08.373Z,2.52
2023-03-10T04:59:13.526Z,2.71
2023-03-10T05:02:17.489Z,2.93
2023-03-10T05:05:20.642Z,3.34
2023-03-10T05:08:23.355Z,3.34
2023-03-10T05:11:26.629Z,2.98
2023-03-10T05:14:29.293Z,2.90
2023-03-10T05:17:32.006Z,2.78
2023-03-10T05:20:36.673Z,2.90
2023-03-10T05:23:39.380Z,2.91
2023-03-10T05:26:42.332Z,2.78
2023-03-10T05:29:45.391Z,2.99
2023-03-10T05:32:54.925Z,3.66
2023-03-10T05:35:57.937Z,4.48
2023-03-10T05:39:00.807Z,5.08
2023-03-10T05:42:05.051Z,5.07
2023-03-10T05:45:11.138Z,5.41
2023-03-10T05:48:14.159Z,5.02
2023-03-10T05:51:16.817Z,5.83
2023-03-10T05:54:20.611Z,6.34
2023-03-10T05:57:23.364Z,7.00
2023-03-10T06:00:28.031Z,7.38
2023-03-10T06:03:36.790Z,7.88
2023-03-10T06:06:39.485Z,8.21
2023-03-10T06:09:42.085Z,8.36
2023-03-10T06:12:44.640Z,8.68
2023-03-10T06:15:55.573Z,8.82
2023-03-10T06:18:58.442Z,9.62
2023-03-10T06:22:01.152Z,9.79
2023-03-10T06:25:04.958Z,9.69
2023-03-10T06:28:09.774Z,10.39
2023-03-10T06:31:15.564Z,10.64
2023-03-10T06:34:18.452Z,11.19
2023-03-10T06:37:21.099Z,11.45
2023-03-10T06:40:23.967Z,11.91
2023-03-10T06:43:26.571Z,11.70
2023-03-10T06:46:29.374Z,12.11
2023-03-10T06:49:33.244Z,12.15
2023-03-10T06:52:36.086Z,12.33
2023-03-10T06:55:38.905Z,12.48
2023-03-10T06:58:42.109Z,12.66
2023-03-10T07:01:45.081Z,13.70
2023-03-10T07:04:47.923Z,13.57
2023-03-10T07:07:50.859Z,13.19
2023-03-10T07:10:54.693Z,13.52
2023-03-10T07:13:57.296Z,13.27
2023-03-10T07:16:59.997Z,14.38
2023-03-10T07:20:03.161Z,14.05
2023-03-10T07:23:05.788Z,14.94
2023-03-10T07:26:09.124Z,14.57
2023-03-10T07:29:11.807Z,14.42
2023-03-10T07:32:16.038Z,13.85
2023-03-10T07:35:19.107Z,15.00
2023-03-10T07:38:21.710Z,15.08
2023-03-10T07:41:24.455Z,14.25
2023-03-10T07:44:27.164Z,15.19
2023-03-10T07:47:29.879Z,15.12
2023-03-10T07:50:32.683Z,14.78
2023-03-10T07:53:36.040Z,13.87
2023-03-10T07:56:38.662Z,12.70
2023-03-10T07:59:41.684Z,11.50
2023-03-10T08:02:44.307Z,12.62
2023-03-10T08:05:47.539Z,14.16
2023-03-10T08:08:51.109Z,13.77
2023-03-10T08:11:53.769Z,12.71
2023-03-10T08:14:56.408Z,12.03
2023-03-10T08:17:59.061Z,11.82
2023-03-10T08:21:05.450Z,12.02
2023-03-10T08:24:08.142Z,12.35
2023-03-10T08:27:10.699Z,12.60
2023-03-10T08:30:13.571Z,12.94
2023-03-10T08:33:16.607Z,12.26
2023-03-10T08:36:21.655Z,12.42
2023-03-10T08:39:26.616Z,13.69
2023-03-10T08:42:30.155Z,16.36
2023-03-10T08:45:32.850Z,16.04
2023-03-10T08:48:35.801Z,17.04
2023-03-10T08:51:39.478Z,16.14
2023-03-10T08:54:42.063Z,16.92
2023-03-10T08:57:44.768Z,16.16
2023-03-10T09:00:47.537Z,16.69
2023-03-10T09:03:50.098Z,17.01
2023-03-10T09:06:52.777Z,18.66
2023-03-10T09:09:55.376Z,18.64
2023-03-10T09:13:12.662Z,17.15
2023-03-10T09:16:16.929Z,15.37
2023-03-10T09:19:19.831Z,14.74
2023-03-10T09:22:22.683Z,14.15
2023-03-10T09:25:25.367Z,14.37
2023-03-10T09:28:27.981Z,14.85
2023-03-10T09:31:35.813Z,14.38
2023-03-10T09:34:38.535Z,14.27
2023-03-10T09:37:41.100Z,13.75
2023-03-10T09:40:53.951Z,13.71
2023-03-10T09:44:02.602Z,13.30
2023-03-10T09:47:26.912Z,14.03
2023-03-10T09:50:36.452Z,13.50
2023-03-10T09:54:03.601Z,13.68
2023-03-10T09:57:15.669Z,14.87
2023-03-10T10:00:32.295Z,15.83
2023-03-10T10:03:52.599Z,15.84
2023-03-10T10:06:57.449Z,16.66
2023-03-10T10:10:17.126Z,15.48
2023-03-10T10:13:23.084Z,15.68
2023-03-10T10:16:37.515Z,16.49
2023-03-10T10:19:41.215Z,16.98
2023-03-10T10:22:45.587Z,17.97
2023-03-10T10:25:50.294Z,18.66
2023-03-10T10:29:13.095Z,17.33
2023-03-10T10:32:16.682Z,18.05
2023-03-10T10:35:24.154Z,20.13
2023-03-10T10:38:32.046Z,22.59
2023-03-10T10:41:35.142Z,22.50
2023-03-10T10:44:45.030Z,22.37
2023-03-10T10:47:50.328Z,22.59
2023-03-10T10:50:54.260Z,21.95
2023-03-10T10:53:58.490Z,19.91
2023-03-10T10:57:02.026Z,20.97
2023-03-10T11:00:38.380Z,21.12
2023-03-10T11:03:45.095Z,19.91
2023-03-10T11:06:48.132Z,20.77
2023-03-10T11:09:51.012Z,20.73
2023-03-10T11:13:22.695Z,20.59
2023-03-10T11:17:00.156Z,20.77
2023-03-10T11:20:02.692Z,20.23
2023-03-10T11:23:24.256Z,20.52
2023-03-10T11:26:45.065Z,19.43
2023-03-10T11:30:06.160Z,19.08
2023-03-10T11:33:17.979Z,20.59
2023-03-10T11:36:53.472Z,20.25
2023-03-10T11:40:11.638Z,19.77
2023-03-10T11:43:51.631Z,19.30
2023-03-10T11:47:06.123Z,19.52
2023-03-10T11:50:37.091Z,18.36
2023-03-10T11:53:47.381Z,17.73
2023-03-10T11:56:52.124Z,16.97
2023-03-10T12:00:01.347Z,16.55
2023-03-10T12:03:16.207Z,16.30
2023-03-10T12:06:26.625Z,15.71
2023-03-10T12:09:52.131Z,15.40
2023-03-10T12:12:55.199Z,14.23
2023-03-10T12:16:00.814Z,13.42
2023-03-10T12:19:06.128Z,13.20
2023-03-10T12:22:37.822Z,13.05
2023-03-10T12:25:45.031Z,13.01
2023-03-10T12:28:47.631Z,14.19
2023-03-10T12:31:54.771Z,14.47
2023-03-10T12:35:23.309Z,14.95
2023-03-10T12:38:36.494Z,15.15
2023-03-10T12:41:48.635Z,15.42
2023-03-10T12:44:55.462Z,15.35
2023-03-10T12:48:03.511Z,15.03
2023-03-10T12:51:15.063Z,14.81
2023-03-10T12:54:21.283Z,14.82
2023-03-10T12:57:45.390Z,14.77
2023-03-10T13:00:49.722Z,14.60
2023-03-10T13:03:54.185Z,14.47
2023-03-10T13:07:03.786Z,14.44
2023-03-10T13:10:07.296Z,14.31
2023-03-10T13:13:17.263Z,14.31
2023-03-10T13:16:21.518Z,14.35
2023-03-10T13:19:36.850Z,14.29
2023-03-10T13:22:40.129Z,14.47
2023-03-10T13:25:55.220Z,14.44
2023-03-10T13:29:01.390Z,14.61
2023-03-10T13:32:04.566Z,14.47
2023-03-10T13:35:30.336Z,14.25
2023-03-10T13:38:32.944Z,14.16
2023-03-10T13:41:40.918Z,13.96
2023-03-10T13:44:44.686Z,13.79
2023-03-10T13:47:47.373Z,13.96
2023-03-10T13:51:21.733Z,14.19
2023-03-10T13:54:28.447Z,14.32
2023-03-10T13:57:35.704Z,14.45
2023-03-10T14:00:38.416Z,14.36
2023-03-10T14:03:53.062Z,14.59
2023-03-10T14:07:18.466Z,14.83
2023-03-10T14:10:21.414Z,15.42
2023-03-10T14:13:44.720Z,15.44
2023-03-10T14:16:48.842Z,15.01
2023-03-10T14:19:51.536Z,15.16
2023-03-10T14:22:54.236Z,15.05
2023-03-10T14:25:57.713Z,15.64
2023-03-10T14:29:02.406Z,15.92
2023-03-10T14:32:05.548Z,15.46
2023-03-10T14:35:12.743Z,15.18
2023-03-10T14:38:16.270Z,15.15
2023-03-10T14:41:24.231Z,14.64
2023-03-10T14:44:27.811Z,14.60
2023-03-10T14:47:30.653Z,14.49
2023-03-10T14:50:33.882Z,14.49
2023-03-10T14:53:36.614Z,14.38
2023-03-10T14:56:39.292Z,14.38
2023-03-10T14:59:42.012Z,14.18
2023-03-10T15:02:45.927Z,14.30
2023-03-10T15:05:49.565Z,14.27
2023-03-10T15:08:52.378Z,14.12
2023-03-10T15:11:57.099Z,14.24
2023-03-10T15:14:59.670Z,14.10
2023-03-10T15:18:02.363Z,14.01
2023-03-10T15:21:05.153Z,14.09
2023-03-10T15:24:08.502Z,13.89
2023-03-10T15:27:14.798Z,13.86
2023-03-10T15:30:26.654Z,13.80
2023-03-10T15:33:29.620Z,13.91
2023-03-10T15:36:32.414Z,13.82
2023-03-10T15:39:37.085Z,13.77
2023-03-10T15:42:42.546Z,13.81
2023-03-10T15:45:52.126Z,13.77
2023-03-10T15:48:54.837Z,13.71
2023-03-10T15:51:58.256Z,13.58
2023-03-10T15:55:01.018Z,13.60
2023-03-10T15:58:03.612Z,13.22
2023-03-10T16:01:11.565Z,13.08
2023-03-10T16:04:14.482Z,13.02
2023-03-10T16:07:17.193Z,12.89
2023-03-10T16:10:20.979Z,12.85
2023-03-10T16:13:25.046Z,12.75
2023-03-10T16:16:28.655Z,12.76
2023-03-10T16:19:31.500Z,12.67
2023-03-10T16:22:34.224Z,12.66
2023-03-10T16:25:36.791Z,12.60
2023-03-10T16:28:50.767Z,12.39
2023-03-10T16:31:54.240Z,12.49
2023-03-10T16:34:56.839Z,12.25
2023-03-10T16:38:01.250Z,12.36
2023-03-10T16:41:04.359Z,12.25
2023-03-10T16:44:08.524Z,12.33
2023-03-10T16:47:12.478Z,12.35
2023-03-10T16:50:15.459Z,12.31
2023-03-10T16:53:18.209Z,12.40
2023-03-10T16:56:21.674Z,12.52
2023-03-10T16:59:24.900Z,12.41
2023-03-10T17:02:27.812Z,12.33
2023-03-10T17:05:30.605Z,12.28
2023-03-10T17:08:33.728Z,12.11
2023-03-10T17:11:39.295Z,12.20
2023-03-10T17:14:43.962Z,12.14
2023-03-10T17:17:46.600Z,11.99
2023-03-10T17:20:49.401Z,12.00
2023-03-10T17:23:52.513Z,11.87
2023-03-10T17:26:55.428Z,11.97
2023-03-10T17:29:58.665Z,12.11
2023-03-10T17:33:01.437Z,11.94
2023-03-10T17:36:12.016Z,11.93
2023-03-10T17:39:19.260Z,12.24
2023-03-10T17:42:22.700Z,12.34
2023-03-10T17:45:25.548Z,12.31
2023-03-10T17:48:29.688Z,12.05
2023-03-10T17:51:32.604Z,11.95
2023-03-10T17:54:35.335Z,12.14
2023-03-10T17:57:40.637Z,12.21
2023-03-10T18:00:43.759Z,12.17
2023-03-10T18:03:48.343Z,12.15
2023-03-10T18:06:51.234Z,12.16
2023-03-10T18:09:54.234Z,11.95
2023-03-10T18:12:57.166Z,12.18
2023-03-10T18:15:59.977Z,12.12
2023-03-10T18:19:04.162Z,12.09
2023-03-10T18:22:08.338Z,11.98
2023-03-10T18:25:11.489Z,12.08
2023-03-10T18:28:16.847Z,12.04
2023-03-10T18:31:25.665Z,12.11
2023-03-10T18:34:28.579Z,11.89
2023-03-10T18:37:34.688Z,11.77
2023-03-10T18:40:37.671Z,11.96
2023-03-10T18:43:40.544Z,11.84
2023-03-10T18:46:43.376Z,11.95
2023-03-10T18:49:47.099Z,11.99
2023-03-10T18:52:49.980Z,11.82
2023-03-10T18:55:53.595Z,11.75
2023-03-10T18:58:56.723Z,11.88
2023-03-10T19:01:59.868Z,11.86
2023-03-10T19:05:05.914Z,11.71
2023-03-10T19:08:10.448Z,11.97
2023-03-10T19:11:13.558Z,11.83
2023-03-10T19:14:17.121Z,11.96
2023-03-10T19:17:20.030Z,11.93
2023-03-10T19:20:23.410Z,11.82
2023-03-10T19:23:27.918Z,11.86
2023-03-10T19:26:33.210Z,11.85
2023-03-10T19:29:36.270Z,11.72
2023-03-10T19:32:40.076Z,11.69
2023-03-10T19:35:43.102Z,11.71
2023-03-10T19:38:45.931Z,11.69
2023-03-10T19:41:48.979Z,11.53
2023-03-10T19:44:51.963Z,11.70
2023-03-10T19:47:57.989Z,11.71
2023-03-10T19:51:01.220Z,11.50
2023-03-10T19:54:05.382Z,11.70
2023-03-10T19:57:13.192Z,11.78
2023-03-10T20:00:18.935Z,11.58
2023-03-10T20:03:21.956Z,11.40
2023-03-10T20:06:25.927Z,11.21
2023-03-10T20:09:28.820Z,11.08
2023-03-10T20:12:31.574Z,11.14
2023-03-10T20:15:34.466Z,10.85
2023-03-10T20:18:38.817Z,10.83
2023-03-10T20:21:41.813Z,10.62
2023-03-10T20:24:46.171Z,10.43
2023-03-10T20:27:51.663Z,10.46
2023-03-10T20:30:55.381Z,10.59
2023-03-10T20:33:58.195Z,10.60
2023-03-10T20:37:01.043Z,10.46
2023-03-10T20:40:10.040Z,10.31
2023-03-10T20:43:13.244Z,10.52
2023-03-10T20:46:19.369Z,10.37
2023-03-10T20:49:22.621Z,10.44
2023-03-10T20:52:26.136Z,10.43
2023-03-10T20:55:31.594Z,10.44
2023-03-10T20:58:35.878Z,10.40
2023-03-10T21:01:42.403Z,10.59
2023-03-10T21:04:47.183Z,10.60
2023-03-10T21:07:50.679Z,10.61
2023-03-10T21:10:54.974Z,10.56
2023-03-10T21:13:57.883Z,10.43
2023-03-10T21:17:01.689Z,10.42
2023-03-10T21:20:08.071Z,10.60
2023-03-10T21:23:10.951Z,10.77
2023-03-10T21:26:19.459Z,10.64
2023-03-10T21:29:22.504Z,10.69
2023-03-10T21:32:26.911Z,10.63
2023-03-10T21:35:34.137Z,10.57
2023-03-10T21:38:37.775Z,10.59
2023-03-10T21:41:40.666Z,10.70
2023-03-10T21:44:43.736Z,10.54
2023-03-10T21:47:47.117Z,10.71
2023-03-10T21:50:49.982Z,10.54
2023-03-10T21:53:54.108Z,10.45
2023-03-10T21:56:59.343Z,10.28
2023-03-10T22:00:01.936Z,10.22
2023-03-10T22:03:10.401Z,10.18
2023-03-10T22:06:13.057Z,9.96
2023-03-10T22:09:15.752Z,10.08
2023-03-10T22:12:18.742Z,10.20
2023-03-10T22:15:23.962Z,10.30
2023-03-10T22:18:26.759Z,10.42
2023-03-10T22:21:29.410Z,10.39
2023-03-10T22:24:32.495Z,10.25
2023-03-10T22:27:35.090Z,10.21
2023-03-10T22:30:38.986Z,9.94
2023-03-10T22:33:41.830Z,10.25
2023-03-10T22:36:44.469Z,10.31
2023-03-10T22:39:47.117Z,10.14
2023-03-10T22:42:50.060Z,10.21
2023-03-10T22:45:56.459Z,10.24
2023-03-10T22:48:59.267Z,10.03
2023-03-10T22:52:06.968Z,10.23
2023-03-10T22:55:14.258Z,10.16
2023-03-10T22:58:17.175Z,10.12
2023-03-10T23:01:19.912Z,9.96
2023-03-10T23:04:22.724Z,10.05
2023-03-10T23:07:25.364Z,10.04
2023-03-10T23:10:31.172Z,10.14
2023-03-10T23:13:33.939Z,10.23
2023-03-10T23:16:38.211Z,10.10
2023-03-10T23:19:40.814Z,10.04
2023-03-10T23:22:45.224Z,9.97
2023-03-10T23:25:51.018Z,9.83
2023-03-10T23:28:53.791Z,9.73
2023-03-10T23:31:56.452Z,9.82
2023-03-10T23:34:59.065Z,9.84
2023-03-10T23:38:04.384Z,9.67
2023-03-10T23:41:08.262Z,9.61
2023-03-10T23:44:11.009Z,9.79
2023-03-10T23:47:13.932Z,9.94
2023-03-10T23:50:26.150Z,10.00
2023-03-10T23:53:29.094Z,9.94
2023-03-10T23:56:31.867Z,9.76
2023-03-10T23:59:34.619Z,9.74
